createdAt,value
2023-03-11T00:01:28.903Z,100310.94
2023-03-11T00:03:58.767Z,100310.94
2023-03-11T00:06:28.977Z,100318.47
2023-03-11T00:09:01.537Z,100322.22
2023-03-11T00:11:31.543Z,100320.06
2023-03-11T00:14:01.525Z,100327.59
2023-03-11T00:16:31.632Z,100331.38
2023-03-11T00:19:01.445Z,100328.13
2023-03-11T00:21:32.150Z,100341.03
2023-03-11T00:24:04.914Z,100352.28
2023-03-11T00:26:34.848Z,100351.22
2023-03-11T00:29:04.697Z,100351.22
2023-03-11T00:31:34.728Z,100361.94
2023-03-11T00:34:04.625Z,100360.31
2023-03-11T00:36:36.637Z,100361.13
2023-03-11T00:39:11.265Z,100359.81
2023-03-11T00:41:41.088Z,100365.97
2023-03-11T00:44:12.630Z,100373.22
2023-03-11T00:46:42.785Z,100367.63
2023-03-11T00:49:12.646Z,100372.69
2023-03-11T00:51:42.681Z,100366.81
2023-03-11T00:54:15.545Z,100375.38
2023-03-11T00:56:45.314Z,100378.59
2023-03-11T00:59:15.148Z,100384.50
2023-03-11T01:01:45.137Z,100387.72
2023-03-11T01:04:16.317Z,100391.97
2023-03-11T01:06:46.509Z,100390.34
2023-03-11T01:09:20.960Z,100391.91
2023-03-11T01:11:51.789Z,100386.00
2023-03-11T01:14:24.723Z,100395.16
2023-03-11T01:16:57.105Z,100392.47
2023-03-11T01:19:27.001Z,100394.88
2023-03-11T01:21:56.900Z,100401.03
2023-03-11T01:24:29.505Z,100397.25
2023-03-11T01:26:59.340Z,100396.75
2023-03-11T01:29:29.233Z,100401.56
2023-03-11T01:31:59.462Z,100404.25
2023-03-11T01:34:30.342Z,100412.03
2023-03-11T01:37:00.226Z,100409.91
2023-03-11T01:39:32.848Z,100416.63
2023-03-11T01:42:03.028Z,100414.75
2023-03-11T01:44:33.099Z,100413.94
2023-03-11T01:47:32.841Z,100422.53
2023-03-11T01:50:03.057Z,100423.06
2023-03-11T01:52:33.390Z,100430.84
2023-03-11T01:55:06.830Z,100425.19
2023-03-11T01:57:36.843Z,100429.47
2023-03-11T02:00:10.603Z,100434.84
2023-03-11T02:02:45.294Z,100442.94
2023-03-11T02:05:15.356Z,100429.78
2023-03-11T02:07:45.326Z,100438.91
2023-03-11T02:10:18.228Z,100440.28
2023-03-11T02:12:49.416Z,100443.47
2023-03-11T02:15:19.305Z,100440.84
2023-03-11T02:17:49.417Z,100442.47
2023-03-11T02:20:30.827Z,100439.25
2023-03-11T02:23:02.831Z,100446.47
2023-03-11T02:25:43.509Z,100436.06
2023-03-11T02:28:18.486Z,100440.34
2023-03-11T02:30:49.704Z,100441.94
2023-03-11T02:33:20.163Z,100446.22
2023-03-11T02:35:50.068Z,100445.16
2023-03-11T02:38:19.879Z,100450.28
2023-03-11T02:40:55.749Z,100446.25
2023-03-11T02:43:34.555Z,100436.88
2023-03-11T02:46:05.842Z,100450.56
2023-03-11T02:48:37.314Z,100444.13
2023-03-11T02:51:08.169Z,100450.59
2023-03-11T02:53:42.134Z,100447.63
2023-03-11T02:56:12.036Z,100449.50
2023-03-11T02:58:44.569Z,100444.72
2023-03-11T03:01:14.486Z,100450.59
2023-03-11T03:03:44.505Z,100452.47
2023-03-11T03:06:14.619Z,100452.75
2023-03-11T03:08:45.035Z,100460.00
2023-03-11T03:11:14.923Z,100464.56
2023-03-11T03:13:47.397Z,100466.16
2023-03-11T03:16:17.114Z,100459.75
2023-03-11T03:18:46.961Z,100465.63
2023-03-11T03:21:16.761Z,100471.00
2023-03-11T03:23:46.547Z,100464.03
2023-03-11T03:26:17.088Z,100467.22
2023-03-11T03:28:49.574Z,100472.06
2023-03-11T03:31:19.395Z,100474.72
2023-03-11T03:33:49.322Z,100477.97
2023-03-11T03:36:19.168Z,100480.38
2023-03-11T03:38:49.213Z,100481.16
2023-03-11T03:41:19.421Z,100480.63
2023-03-11T03:43:53.897Z,100486.00
2023-03-11T03:46:24.572Z,100494.03
2023-03-11T03:48:54.606Z,100502.34
2023-03-11T03:51:24.677Z,100509.59
2023-03-11T03:53:57.342Z,100519.75
2023-03-11T03:56:27.257Z,100513.88
2023-03-11T03:58:59.737Z,100513.63
2023-03-11T04:01:29.547Z,100521.91
2023-03-11T04:03:59.447Z,100530.50
2023-03-11T04:06:31.488Z,100529.97
2023-03-11T04:09:01.426Z,100524.84
2023-03-11T04:11:31.345Z,100525.41
2023-03-11T04:14:04.255Z,100530.50
2023-03-11T04:16:34.414Z,100531.53
2023-03-11T04:19:07.576Z,100531.53
2023-03-11T04:21:37.347Z,100530.75
2023-03-11T04:24:07.139Z,100537.44
2023-03-11T04:26:37.193Z,100539.31
2023-03-11T04:29:09.682Z,100542.81
2023-03-11T04:31:41.764Z,100548.16
2023-03-11T04:34:11.822Z,100562.38
2023-03-11T04:36:42.169Z,100555.94
2023-03-11T04:39:12.184Z,100557.78
2023-03-11T04:41:41.945Z,100559.69
2023-03-11T04:44:14.664Z,100556.75
2023-03-11T04:46:44.707Z,100561.03
2023-03-11T04:49:14.761Z,100571.75
2023-03-11T04:51:45.448Z,100574.41
2023-03-11T04:54:15.729Z,100578.72
2023-03-11T04:56:45.589Z,100587.03
2023-03-11T04:59:18.109Z,100578.44
2023-03-11T05:01:48.122Z,100582.19
2023-03-11T05:04:17.973Z,100579.25
2023-03-11T05:06:50.991Z,100584.84
2023-03-11T05:09:23.207Z,100586.47
2023-03-11T05:11:53.024Z,100585.13
2023-03-11T05:14:25.560Z,100589.91
2023-03-11T05:16:55.584Z,100587.81
2023-03-11T05:19:35.413Z,100583.47
2023-03-11T05:22:06.420Z,100589.38
2023-03-11T05:24:38.133Z,100598.50
2023-03-11T05:27:08.226Z,100595.28
2023-03-11T05:29:40.889Z,100595.28
2023-03-11T05:32:12.688Z,100591.53
2023-03-11T05:34:42.726Z,100591.53
2023-03-11T05:37:12.629Z,100596.31
2023-03-11T05:39:42.882Z,100609.72
2023-03-11T05:42:13.006Z,100612.66
2023-03-11T05:44:45.517Z,100614.28
2023-03-11T05:47:15.512Z,100613.47
2023-03-11T05:49:45.280Z,100607.03
2023-03-11T05:52:15.295Z,100609.22
2023-03-11T05:54:45.391Z,100625.28
2023-03-11T05:57:15.234Z,100621.53
2023-03-11T05:59:48.101Z,100618.31
2023-03-11T06:02:17.990Z,100620.44
2023-03-11T06:04:48.300Z,100631.69
2023-03-11T06:07:18.490Z,100639.19
2023-03-11T06:09:48.293Z,100630.56
2023-03-11T06:12:18.219Z,100634.88
2023-03-11T06:14:51.227Z,100642.38
2023-03-11T06:17:21.188Z,100643.41
2023-03-11T06:19:51.064Z,100639.13
2023-03-11T06:22:20.999Z,100646.88
2023-03-11T06:24:50.810Z,100644.47
2023-03-11T06:27:20.625Z,100650.88
2023-03-11T06:29:55.301Z,100655.16
2023-03-11T06:32:25.574Z,100658.09
2023-03-11T06:34:56.222Z,100655.66
2023-03-11T06:37:26.679Z,100660.47
2023-03-11T06:39:57.152Z,100674.38
2023-03-11T06:42:27.359Z,100671.13
2023-03-11T06:45:02.665Z,100682.91
2023-03-11T06:47:32.560Z,100682.38
2023-03-11T06:50:06.664Z,100687.47
2023-03-11T06:52:38.346Z,100685.88
2023-03-11T06:55:09.846Z,100690.44
2023-03-11T06:57:39.700Z,100691.53
2023-03-11T07:00:15.279Z,100695.84
2023-03-11T07:02:45.262Z,100708.75
2023-03-11T07:05:15.508Z,100699.69
2023-03-11T07:07:45.473Z,100713.41
2023-03-11T07:10:15.598Z,100715.31
2023-03-11T07:12:45.430Z,100712.63
2023-03-11T07:15:18.236Z,100715.31
2023-03-11T07:17:48.168Z,100738.34
2023-03-11T07:20:18.256Z,100735.13
2023-03-11T07:22:48.034Z,100739.94
2023-03-11T07:25:18.248Z,100742.66
2023-03-11T07:27:49.718Z,100736.75
2023-03-11T07:30:22.539Z,100750.69
2023-03-11T07:32:52.609Z,100753.41
2023-03-11T07:35:23.000Z,100765.22
2023-03-11T07:37:52.778Z,100751.84
2023-03-11T07:40:23.119Z,100761.50
2023-03-11T07:42:53.204Z,100758.56
2023-03-11T07:45:26.423Z,100768.22
2023-03-11T07:47:56.405Z,100777.13
2023-03-11T07:50:26.342Z,100777.44
2023-03-11T07:52:56.230Z,100772.38
2023-03-11T07:55:25.953Z,100773.22
2023-03-11T07:57:55.749Z,100772.97
2023-03-11T08:00:28.579Z,100783.16
2023-03-11T08:02:58.472Z,100779.66
2023-03-11T08:05:28.268Z,100783.09
2023-03-11T08:07:58.057Z,100792.44
2023-03-11T08:10:30.758Z,100788.09
2023-03-11T08:13:00.780Z,100792.59
2023-03-11T08:15:33.467Z,100788.22
2023-03-11T08:18:03.364Z,100782.44
2023-03-11T08:20:33.300Z,100790.63
2023-03-11T08:23:03.237Z,100791.53
2023-03-11T08:25:33.548Z,100791.28
2023-03-11T08:28:03.462Z,100792.50
2023-03-11T08:30:36.200Z,100791.22
2023-03-11T08:33:06.401Z,100792.97
2023-03-11T08:35:38.444Z,100801.56
2023-03-11T08:38:08.776Z,100803.63
2023-03-11T08:40:38.679Z,100805.25
2023-03-11T08:43:08.430Z,100803.16
2023-03-11T08:45:42.763Z,100804.34
2023-03-11T08:48:14.245Z,100793.59
2023-03-11T08:50:54.023Z,100795.25
2023-03-11T08:53:24.894Z,100803.75
2023-03-11T08:55:55.862Z,100805.69
2023-03-11T08:58:25.677Z,100812.84
2023-03-11T09:00:58.041Z,100815.34
2023-03-11T09:03:29.624Z,100826.78
2023-03-11T09:06:03.477Z,100825.97
2023-03-11T09:08:33.893Z,100831.34
2023-03-11T09:11:03.802Z,100823.00
2023-03-11T09:13:33.635Z,100817.28
2023-03-11T09:16:07.024Z,100806.44
2023-03-11T09:18:36.865Z,100815.84
2023-03-11T09:21:07.972Z,100812.34
2023-03-11T09:23:37.909Z,100815.25
2023-03-11T09:26:08.364Z,100823.63
2023-03-11T09:28:38.552Z,100819.53
2023-03-11T09:31:11.324Z,100826.47
2023-03-11T09:33:42.718Z,100842.97
2023-03-11T09:36:16.695Z,100838.97
2023-03-11T09:38:47.605Z,100840.19
2023-03-11T09:41:29.009Z,100842.91
2023-03-11T09:44:22.733Z,100850.91
2023-03-11T09:47:34.632Z,100843.78
2023-03-11T09:50:16.870Z,100840.13
2023-03-11T09:52:54.571Z,100833.69
2023-03-11T09:55:38.009Z,100843.06
2023-03-11T09:58:16.164Z,100837.13
2023-03-11T10:00:47.232Z,100846.72
2023-03-11T10:03:30.236Z,100852.06
2023-03-11T10:06:08.019Z,100853.50
2023-03-11T10:08:45.673Z,100861.19
2023-03-11T10:11:29.718Z,100863.72
2023-03-11T10:14:15.673Z,100863.06
2023-03-11T10:16:54.088Z,100853.94
2023-03-11T10:19:38.959Z,100863.06
2023-03-11T10:22:17.317Z,100858.84
2023-03-11T10:25:02.803Z,100856.84
2023-03-11T10:27:38.745Z,100853.47
2023-03-11T10:30:16.703Z,100857.06
2023-03-11T10:32:52.066Z,100856.28
2023-03-11T10:35:26.107Z,100861.00
2023-03-11T10:37:59.201Z,100864.06
2023-03-11T10:40:33.378Z,100865.25
2023-03-11T10:43:06.614Z,100870.03
2023-03-11T10:45:41.697Z,100873.28
2023-03-11T10:48:13.910Z,100869.38
2023-03-11T10:50:55.250Z,100875.44
2023-03-11T10:53:25.185Z,100876.91
2023-03-11T10:55:59.525Z,100880.91
2023-03-11T10:58:31.421Z,100866.50
2023-03-11T11:01:16.758Z,100870.81
2023-03-11T11:03:49.432Z,100867.81
2023-03-11T11:06:29.026Z,100860.72
2023-03-11T11:09:10.067Z,100858.44
2023-03-11T11:11:39.897Z,100862.44
2023-03-11T11:14:10.758Z,100855.41
2023-03-11T11:16:41.291Z,100863.03
2023-03-11T11:19:13.699Z,100865.63
2023-03-11T11:21:48.846Z,100865.03
2023-03-11T11:24:26.957Z,100859.81
2023-03-11T11:27:08.336Z,100859.00
2023-03-11T11:29:38.263Z,100859.94
2023-03-11T11:32:21.130Z,100872.66
2023-03-11T11:35:14.122Z,100875.63
2023-03-11T11:37:50.728Z,100876.94
2023-03-11T11:40:27.263Z,100873.63
2023-03-11T11:43:01.290Z,100862.53
2023-03-11T11:45:37.937Z,100867.53
2023-03-11T11:48:16.217Z,100859.41
2023-03-11T11:50:54.012Z,100855.22
2023-03-11T11:53:34.016Z,100852.38
2023-03-11T11:56:05.393Z,100862.53
2023-03-11T11:58:35.599Z,100867.31
2023-03-11T12:01:17.040Z,100864.00
2023-03-11T12:04:10.975Z,100857.91
2023-03-11T12:06:47.601Z,100854.41
2023-03-11T12:09:29.170Z,100856.63
2023-03-11T12:12:07.214Z,100847.78
2023-03-11T12:14:46.455Z,100855.13
2023-03-11T12:17:23.723Z,100863.63
2023-03-11T12:19:59.691Z,100867.44
2023-03-11T12:23:02.489Z,100884.91
2023-03-11T12:25:42.475Z,100871.66
2023-03-11T12:28:24.869Z,100871.34
2023-03-11T12:30:57.633Z,100873.44
2023-03-11T12:33:34.385Z,100872.66
2023-03-11T12:36:07.200Z,100869.84
2023-03-11T12:38:38.901Z,100873.03
2023-03-11T12:41:31.099Z,100868.25
2023-03-11T12:44:23.995Z,100865.22
2023-03-11T12:47:22.791Z,100869.22
2023-03-11T12:49:55.158Z,100861.78
2023-03-11T12:52:30.485Z,100858.59
2023-03-11T12:55:28.527Z,100861.81
2023-03-11T12:58:08.305Z,100864.25
2023-03-11T13:00:59.573Z,100869.44
2023-03-11T13:03:48.197Z,100859.94
2023-03-11T13:06:40.287Z,100854.00
2023-03-11T13:09:17.551Z,100853.81
2023-03-11T13:11:49.304Z,100851.28
2023-03-11T13:14:33.034Z,100851.81
2023-03-11T13:17:26.565Z,100848.00
2023-03-11T13:19:58.544Z,100850.00
2023-03-11T13:23:02.570Z,100836.38
2023-03-11T13:25:40.333Z,100836.75
2023-03-11T13:28:41.860Z,100848.81
2023-03-11T13:31:38.515Z,100842.56
2023-03-11T13:34:18.051Z,100841.03
2023-03-11T13:37:14.987Z,100843.44
2023-03-11T13:40:04.121Z,100834.69
2023-03-11T13:42:38.656Z,100838.13
2023-03-11T13:45:15.753Z,100845.56
2023-03-11T13:47:51.736Z,100843.78
2023-03-11T13:50:29.634Z,100842.88
2023-03-11T13:53:01.557Z,100842.66
2023-03-11T13:55:36.495Z,100860.81
2023-03-11T13:58:18.368Z,100851.56
2023-03-11T14:00:52.974Z,100851.19
2023-03-11T14:03:26.650Z,100847.66
2023-03-11T14:06:02.097Z,100855.41
2023-03-11T14:08:35.080Z,100858.81
2023-03-11T14:11:06.813Z,100858.38
2023-03-11T14:13:41.753Z,100859.47
2023-03-11T14:16:16.690Z,100866.25
2023-03-11T14:18:50.358Z,100869.25
2023-03-11T14:21:22.382Z,100855.44
2023-03-11T14:23:54.203Z,100858.41
2023-03-11T14:26:27.172Z,100861.09
2023-03-11T14:29:02.119Z,100862.75
2023-03-11T14:31:37.469Z,100857.97
2023-03-11T14:34:18.804Z,100864.97
2023-03-11T14:36:54.340Z,100858.66
2023-03-11T14:39:29.836Z,100865.13
2023-03-11T14:42:05.185Z,100866.09
2023-03-11T14:44:38.629Z,100862.31
2023-03-11T14:47:14.486Z,100861.56
2023-03-11T14:49:47.661Z,100868.09
2023-03-11T14:52:23.897Z,100872.13
2023-03-11T14:54:56.655Z,100872.94
2023-03-11T14:57:38.230Z,100874.09
2023-03-11T15:00:16.746Z,100870.13
2023-03-11T15:02:57.086Z,100866.91
2023-03-11T15:05:36.142Z,100869.78
2023-03-11T15:08:08.172Z,100871.03
2023-03-11T15:10:38.186Z,100873.28
2023-03-11T15:13:11.570Z,100875.63
2023-03-11T15:15:41.351Z,100873.19
2023-03-11T15:18:26.799Z,100864.19
2023-03-11T15:21:18.185Z,100871.34
2023-03-11T15:23:50.201Z,100873.63
2023-03-11T15:26:26.139Z,100875.50
2023-03-11T15:28:58.759Z,100875.00
2023-03-11T15:31:34.487Z,100874.69
2023-03-11T15:34:40.162Z,100871.63
2023-03-11T15:37:25.410Z,100880.34
2023-03-11T15:39:55.236Z,100872.41
2023-03-11T15:42:27.859Z,100879.75
2023-03-11T15:45:15.000Z,100886.03
2023-03-11T15:47:45.708Z,100872.44
2023-03-11T15:50:30.172Z,100873.47
2023-03-11T15:53:15.845Z,100875.88
2023-03-11T15:55:45.830Z,100877.84
2023-03-11T15:58:18.535Z,100884.41
2023-03-11T16:00:51.451Z,100880.25
2023-03-11T16:03:22.148Z,100885.50
2023-03-11T16:05:52.302Z,100885.09
2023-03-11T16:08:25.122Z,100892.19
2023-03-11T16:10:55.397Z,100887.34
2023-03-11T16:13:25.267Z,100884.94
2023-03-11T16:15:57.778Z,100884.47
2023-03-11T16:18:27.726Z,100891.00
2023-03-11T16:20:58.477Z,100885.38
2023-03-11T16:23:50.735Z,100883.41
2023-03-11T16:26:21.308Z,100884.63
2023-03-11T16:28:51.448Z,100891.38
2023-03-11T16:31:21.851Z,100887.47
2023-03-11T16:33:52.147Z,100893.50
2023-03-11T16:36:22.398Z,100884.06
2023-03-11T16:38:55.122Z,100888.31
2023-03-11T16:41:25.035Z,100882.97
2023-03-11T16:43:55.059Z,100894.13
2023-03-11T16:46:24.962Z,100888.00
2023-03-11T16:48:57.516Z,100885.13
2023-03-11T16:51:27.293Z,100887.19
2023-03-11T16:53:59.829Z,100895.81
2023-03-11T16:56:32.487Z,100886.09
2023-03-11T16:59:02.850Z,100894.31
2023-03-11T17:01:32.693Z,100891.59
2023-03-11T17:04:02.511Z,100897.34
2023-03-11T17:06:32.353Z,100913.66
2023-03-11T17:09:04.864Z,100907.06
2023-03-11T17:11:34.875Z,100910.97
2023-03-11T17:14:15.793Z,100912.97
2023-03-11T17:16:46.396Z,100911.78
2023-03-11T17:19:16.898Z,100909.16
2023-03-11T17:21:46.809Z,100909.75
2023-03-11T17:24:19.360Z,100923.38
2023-03-11T17:26:49.184Z,100919.94
2023-03-11T17:29:19.237Z,100920.34
2023-03-11T17:31:49.184Z,100925.53
2023-03-11T17:34:20.944Z,100920.22
2023-03-11T17:36:50.888Z,100927.59
2023-03-11T17:39:23.455Z,100920.16
2023-03-11T17:41:53.238Z,100927.06
2023-03-11T17:44:25.078Z,100927.13
2023-03-11T17:46:55.111Z,100935.56
2023-03-11T17:49:25.038Z,100945.97
2023-03-11T17:51:54.892Z,100940.34
2023-03-11T17:54:27.308Z,100940.91
2023-03-11T17:56:57.650Z,100939.91
2023-03-11T17:59:27.820Z,100935.38
2023-03-11T18:01:57.791Z,100945.44
2023-03-11T18:04:27.776Z,100929.91
2023-03-11T18:06:57.820Z,100941.88
2023-03-11T18:09:30.782Z,100944.72
2023-03-11T18:12:00.965Z,100940.75
2023-03-11T18:14:30.795Z,100945.22
2023-03-11T18:17:01.007Z,100953.91
2023-03-11T18:19:30.928Z,100939.47
2023-03-11T18:22:00.714Z,100944.41
2023-03-11T18:24:33.251Z,100936.94
2023-03-11T18:27:03.152Z,100938.06
2023-03-11T18:29:33.093Z,100937.63
2023-03-11T18:32:03.303Z,100930.16
2023-03-11T18:34:33.339Z,100935.06
2023-03-11T18:37:03.214Z,100936.22
2023-03-11T18:39:35.800Z,100947.63
2023-03-11T18:42:05.933Z,100950.38
2023-03-11T18:44:36.980Z,100949.88
2023-03-11T18:47:06.894Z,100954.81
2023-03-11T18:49:36.894Z,100951.63
2023-03-11T18:52:10.063Z,100954.63
2023-03-11T18:54:42.763Z,100962.50
2023-03-11T18:57:13.034Z,100963.03
2023-03-11T18:59:42.929Z,100965.22
2023-03-11T19:02:13.332Z,100967.41
2023-03-11T19:04:45.924Z,100960.16
2023-03-11T19:07:15.849Z,100965.59
2023-03-11T19:09:48.318Z,100963.22
2023-03-11T19:12:32.626Z,100955.69
2023-03-11T19:15:02.482Z,100959.78
2023-03-11T19:17:32.318Z,100965.47
2023-03-11T19:20:02.122Z,100968.22
2023-03-11T19:22:31.974Z,100969.31
2023-03-11T19:25:04.596Z,100982.81
2023-03-11T19:27:35.788Z,100984.16
2023-03-11T19:30:05.821Z,100981.75
2023-03-11T19:32:35.738Z,100981.25
2023-03-11T19:35:05.876Z,100980.22
2023-03-11T19:37:35.838Z,100980.50
2023-03-11T19:40:11.400Z,100981.03
2023-03-11T19:42:41.373Z,100978.63
2023-03-11T19:45:12.475Z,100982.41
2023-03-11T19:47:46.522Z,100992.13
2023-03-11T19:50:16.425Z,100984.06
2023-03-11T19:52:46.460Z,100977.63
2023-03-11T19:55:19.328Z,100984.63
2023-03-11T19:57:49.187Z,100986.25
2023-03-11T20:00:21.045Z,100986.78
2023-03-11T20:02:51.086Z,100993.75
2023-03-11T20:05:21.250Z,100986.78
2023-03-11T20:07:51.143Z,100994.84
2023-03-11T20:10:23.913Z,100993.75
2023-03-11T20:13:02.211Z,100995.94
2023-03-11T20:15:33.309Z,101001.31
2023-03-11T20:18:06.276Z,100986.53
2023-03-11T20:20:36.974Z,100985.16
2023-03-11T20:23:06.867Z,100983.84
2023-03-11T20:25:41.316Z,100981.44
2023-03-11T20:28:11.776Z,100983.56
2023-03-11T20:30:42.679Z,100985.19
2023-03-11T20:33:12.777Z,100988.41
2023-03-11T20:35:42.831Z,100999.72
2023-03-11T20:38:13.186Z,100986.25
2023-03-11T20:40:46.108Z,101001.88
2023-03-11T20:43:16.065Z,100994.34
2023-03-11T20:45:46.140Z,101000.25
2023-03-11T20:48:16.009Z,100998.66
2023-03-11T20:50:46.067Z,100992.97
2023-03-11T20:53:15.990Z,100995.94
2023-03-11T20:55:48.875Z,100991.41
2023-03-11T20:58:20.187Z,100990.59
2023-03-11T21:00:49.984Z,100988.16
2023-03-11T21:03:19.942Z,100987.88
2023-03-11T21:05:49.851Z,100990.06
2023-03-11T21:08:19.834Z,100993.25
2023-03-11T21:10:55.327Z,100990.56
2023-03-11T21:13:25.088Z,100995.13
2023-03-11T21:16:00.634Z,100993.25
2023-03-11T21:18:30.637Z,100990.56
2023-03-11T21:21:00.600Z,100990.56
2023-03-11T21:23:30.683Z,100983.56
2023-03-11T21:26:04.497Z,100991.91
2023-03-11T21:28:35.301Z,100984.63
2023-03-11T21:31:07.552Z,100983.56
2023-03-11T21:33:37.686Z,100979.25
2023-03-11T21:36:09.122Z,100982.50
2023-03-11T21:38:40.757Z,100976.03
2023-03-11T21:41:15.564Z,100979.78
2023-03-11T21:43:46.187Z,100968.22
2023-03-11T21:46:18.379Z,100972.25
2023-03-11T21:48:49.611Z,100979.47
2023-03-11T21:51:22.391Z,100968.47
2023-03-11T21:53:52.294Z,100976.22
2023-03-11T21:56:25.218Z,100974.88
2023-03-11T21:58:54.974Z,100981.56
2023-03-11T22:01:25.031Z,100981.31
2023-03-11T22:03:55.453Z,100981.84
2023-03-11T22:06:25.802Z,100979.94
2023-03-11T22:08:55.898Z,100980.44
2023-03-11T22:11:28.560Z,100977.22
2023-03-11T22:14:01.093Z,100982.34
2023-03-11T22:16:31.398Z,100984.44
2023-03-11T22:19:01.507Z,100985.00
2023-03-11T22:21:31.419Z,100987.94
2023-03-11T22:24:01.197Z,100991.44
2023-03-11T22:26:33.978Z,100994.66
2023-03-11T22:29:04.767Z,100990.91
2023-03-11T22:31:34.868Z,100993.56
2023-03-11T22:34:04.736Z,100986.59
2023-03-11T22:36:34.592Z,100991.97
2023-03-11T22:39:04.512Z,100986.88
2023-03-11T22:41:36.970Z,100979.91
2023-03-11T22:44:07.117Z,100979.31
2023-03-11T22:46:36.945Z,100976.91
2023-03-11T22:49:06.940Z,100982.53
2023-03-11T22:51:36.707Z,100993.53
2023-03-11T22:54:06.905Z,100988.69
2023-03-11T22:56:39.469Z,100986.28
2023-03-11T22:59:09.445Z,100987.63
2023-03-11T23:01:39.282Z,100987.63
2023-03-11T23:04:09.582Z,100979.03
2023-03-11T23:06:39.522Z,100974.16
2023-03-11T23:09:09.336Z,100976.84
2023-03-11T23:11:41.681Z,100977.91
2023-03-11T23:14:11.548Z,100973.63
2023-03-11T23:16:41.421Z,100973.09
2023-03-11T23:19:11.550Z,100983.81
2023-03-11T23:21:42.708Z,100978.44
2023-03-11T23:24:12.464Z,100978.69
2023-03-11T23:26:44.803Z,100974.66
2023-03-11T23:29:17.113Z,100976.28
2023-03-11T23:31:46.890Z,100969.28
2023-03-11T23:34:16.686Z,100965.81
2023-03-11T23:36:46.446Z,100973.59
2023-03-11T23:39:16.397Z,100967.97
2023-03-11T23:41:48.766Z,100967.19
2023-03-11T23:44:18.571Z,100965.03
2023-03-11T23:46:48.419Z,100958.59
2023-03-11T23:49:18.394Z,100970.97
2023-03-11T23:51:48.210Z,100966.66
2023-03-11T23:54:18.096Z,100963.44
2023-03-11T23:56:50.503Z,100965.03
2023-03-11T23:59:20.406Z,100967.72
